createdAt,value
2017-12-15T00:00:19.445Z,699.72
2017-12-15T00:01:19.912Z,699.78
2017-12-15T00:02:20.423Z,699.73
2017-12-15T00:03:20.850Z,699.72
2017-12-15T00:04:21.319Z,699.67
2017-12-15T00:05:21.785Z,699.78
2017-12-15T00:06:22.254Z,699.78
2017-12-15T00:07:22.722Z,699.81
2017-12-15T00:08:23.193Z,699.86
2017-12-15T00:09:23.659Z,699.81
2017-12-15T00:10:24.128Z,699.79
2017-12-15T00:11:24.594Z,699.79
2017-12-15T00:12:25.063Z,699.82
2017-12-15T00:13:25.530Z,699.77
2017-12-15T00:14:25.998Z,699.84
2017-12-15T00:15:26.467Z,699.82
2017-12-15T00:16:26.935Z,699.84
2017-12-15T00:17:27.402Z,699.85
2017-12-15T00:18:27.878Z,699.84
2017-12-15T00:19:28.339Z,699.85
2017-12-15T00:20:28.807Z,699.84
2017-12-15T00:21:29.275Z,699.80
2017-12-15T00:22:29.745Z,699.83
2017-12-15T00:23:30.213Z,699.81
2017-12-15T00:24:30.679Z,699.70
2017-12-15T00:25:31.147Z,699.75
2017-12-15T00:26:31.616Z,699.74
2017-12-15T00:27:32.085Z,699.59
2017-12-15T00:28:32.555Z,699.57
2017-12-15T00:29:33.020Z,699.64
2017-12-15T00:30:33.489Z,699.66
2017-12-15T00:31:33.956Z,699.55
2017-12-15T00:32:34.425Z,699.49
2017-12-15T00:33:34.898Z,699.47
2017-12-15T00:34:35.361Z,699.41
2017-12-15T00:35:35.831Z,699.47
2017-12-15T00:36:36.300Z,699.30
2017-12-15T00:37:36.766Z,699.36
2017-12-15T00:38:37.237Z,699.20
2017-12-15T00:39:37.705Z,699.28
2017-12-15T00:40:38.172Z,699.29
2017-12-15T00:41:38.638Z,699.22
2017-12-15T00:42:39.157Z,699.30
2017-12-15T00:43:39.575Z,699.08
2017-12-15T00:44:40.043Z,699.24
2017-12-15T00:45:40.511Z,699.28
2017-12-15T00:46:40.979Z,699.34
2017-12-15T00:47:41.448Z,699.11
2017-12-15T00:48:41.917Z,699.27
2017-12-15T00:49:42.383Z,699.07
2017-12-15T00:50:42.851Z,699.07
2017-12-15T00:51:43.319Z,699.01
2017-12-15T00:52:43.788Z,699.05
2017-12-15T00:53:44.256Z,699.09
2017-12-15T00:54:44.727Z,699.23
2017-12-15T00:55:45.237Z,699.01
2017-12-15T00:56:45.661Z,699.05
2017-12-15T00:57:46.129Z,698.82
2017-12-15T00:58:46.598Z,699.01
2017-12-15T00:59:47.066Z,698.85
2017-12-15T01:00:47.535Z,699.03
2017-12-15T01:01:48.001Z,699.00
2017-12-15T01:02:48.472Z,698.69
2017-12-15T01:03:48.939Z,698.85
2017-12-15T01:04:49.406Z,698.95
2017-12-15T01:05:49.873Z,698.89
2017-12-15T01:06:50.342Z,698.88
2017-12-15T01:07:50.811Z,698.77
2017-12-15T01:08:51.280Z,698.66
2017-12-15T01:09:51.746Z,698.76
2017-12-15T01:10:52.216Z,698.83
2017-12-15T01:11:52.685Z,698.67
2017-12-15T01:12:53.153Z,698.68
2017-12-15T01:13:53.620Z,698.72
2017-12-15T01:14:54.088Z,698.80
2017-12-15T01:15:54.557Z,698.62
2017-12-15T01:16:55.027Z,698.66
2017-12-15T01:17:55.493Z,698.75
2017-12-15T01:18:55.966Z,698.53
2017-12-15T01:19:56.430Z,698.82
2017-12-15T01:20:56.900Z,698.78
2017-12-15T01:21:57.366Z,698.80
2017-12-15T01:22:57.837Z,698.73
2017-12-15T01:23:58.307Z,698.75
2017-12-15T01:24:58.771Z,698.85
2017-12-15T01:25:59.240Z,698.55
2017-12-15T01:26:59.706Z,698.43
2017-12-15T01:28:00.178Z,698.61
2017-12-15T01:29:00.644Z,698.59
2017-12-15T01:30:01.112Z,698.65
2017-12-15T01:31:01.580Z,698.86
2017-12-15T01:32:02.050Z,698.57
2017-12-15T01:33:02.516Z,698.47
2017-12-15T01:34:02.984Z,698.48
2017-12-15T01:35:03.461Z,698.51
2017-12-15T01:36:03.922Z,698.54
2017-12-15T01:37:04.389Z,698.70
2017-12-15T01:38:04.857Z,698.72
2017-12-15T01:39:05.328Z,698.72
2017-12-15T01:40:05.794Z,698.85
2017-12-15T01:41:06.263Z,698.75
2017-12-15T01:42:06.730Z,698.72
2017-12-15T01:43:07.200Z,698.65
2017-12-15T01:44:07.669Z,698.86
2017-12-15T01:45:08.135Z,698.88
2017-12-15T01:46:08.602Z,698.92
2017-12-15T01:47:09.071Z,698.96
2017-12-15T01:48:09.538Z,698.93
2017-12-15T01:49:10.009Z,699.04
2017-12-15T01:50:10.473Z,698.99
2017-12-15T01:51:10.943Z,699.04
2017-12-15T01:52:11.410Z,699.26
2017-12-15T01:53:11.880Z,699.25
2017-12-15T01:54:12.347Z,699.33
2017-12-15T01:55:12.816Z,699.31
2017-12-15T01:56:13.286Z,699.46
2017-12-15T01:57:13.754Z,699.39
2017-12-15T01:58:14.222Z,699.34
2017-12-15T01:59:14.736Z,699.34
2017-12-15T02:00:15.160Z,699.39
2017-12-15T02:01:15.627Z,699.63
2017-12-15T02:02:16.098Z,699.06
2017-12-15T02:03:16.563Z,698.61
2017-12-15T02:04:17.032Z,698.78
2017-12-15T02:05:17.499Z,699.22
2017-12-15T02:06:17.976Z,698.45
2017-12-15T02:07:18.436Z,698.95
2017-12-15T02:08:18.904Z,699.26
2017-12-15T02:09:19.374Z,699.15
2017-12-15T02:10:19.840Z,699.33
2017-12-15T02:11:20.313Z,699.42
2017-12-15T02:12:20.777Z,699.18
2017-12-15T02:13:21.244Z,699.28
2017-12-15T02:14:21.713Z,699.17
2017-12-15T02:15:22.181Z,699.25
2017-12-15T02:16:22.648Z,699.28
2017-12-15T02:17:23.117Z,699.47
2017-12-15T02:18:23.588Z,699.35
2017-12-15T02:19:24.055Z,699.33
2017-12-15T02:20:24.522Z,699.30
2017-12-15T02:21:24.990Z,699.30
2017-12-15T02:22:25.457Z,699.40
2017-12-15T02:23:25.927Z,699.45
2017-12-15T02:24:26.396Z,699.25
2017-12-15T02:25:26.862Z,699.25
2017-12-15T02:26:27.334Z,699.23
2017-12-15T02:27:27.801Z,699.33
2017-12-15T02:28:28.267Z,699.27
2017-12-15T02:29:28.736Z,699.16
2017-12-15T02:30:29.203Z,699.52
2017-12-15T02:31:29.672Z,699.32
2017-12-15T02:32:30.140Z,699.41
2017-12-15T02:33:30.609Z,699.49
2017-12-15T02:34:31.078Z,699.48
2017-12-15T02:35:31.571Z,699.41
2017-12-15T02:36:32.012Z,699.48
2017-12-15T02:37:32.483Z,699.53
2017-12-15T02:38:32.950Z,699.29
2017-12-15T02:39:33.421Z,699.40
2017-12-15T02:40:33.887Z,699.60
2017-12-15T02:41:34.356Z,699.39
2017-12-15T02:42:34.830Z,699.48
2017-12-15T02:43:35.290Z,699.66
2017-12-15T02:44:35.758Z,699.66
2017-12-15T02:45:36.228Z,699.70
2017-12-15T02:46:36.692Z,699.52
2017-12-15T02:47:37.165Z,699.36
2017-12-15T02:48:37.632Z,699.21
2017-12-15T02:49:38.101Z,699.30
2017-12-15T02:50:38.566Z,699.29
2017-12-15T02:51:39.037Z,699.80
2017-12-15T02:52:39.507Z,699.76
2017-12-15T02:53:39.971Z,699.76
2017-12-15T02:54:40.439Z,699.68
2017-12-15T02:55:40.908Z,699.63
2017-12-15T02:56:41.378Z,699.58
2017-12-15T02:57:41.844Z,699.46
2017-12-15T02:58:42.313Z,699.60
2017-12-15T02:59:42.780Z,699.31
2017-12-15T03:00:43.250Z,699.32
2017-12-15T03:01:43.717Z,699.47
2017-12-15T03:02:44.183Z,699.55
2017-12-15T03:03:44.654Z,699.22
2017-12-15T03:04:45.120Z,698.81
2017-12-15T03:05:45.588Z,699.36
2017-12-15T03:06:46.056Z,699.58
2017-12-15T03:07:46.524Z,699.30
2017-12-15T03:08:46.992Z,699.63
2017-12-15T03:09:47.467Z,699.37
2017-12-15T03:10:47.928Z,699.33
2017-12-15T03:11:48.400Z,699.46
2017-12-15T03:12:48.866Z,699.26
2017-12-15T03:13:49.335Z,699.65
2017-12-15T03:14:49.803Z,699.31
2017-12-15T03:15:50.271Z,699.24
2017-12-15T03:16:50.738Z,699.59
2017-12-15T03:17:51.207Z,699.54
2017-12-15T03:18:51.672Z,699.43
2017-12-15T03:19:52.144Z,699.59
2017-12-15T03:20:52.611Z,699.61
2017-12-15T03:21:53.076Z,699.59
2017-12-15T03:22:53.545Z,699.64
2017-12-15T03:23:54.014Z,699.73
2017-12-15T03:24:54.482Z,699.68
2017-12-15T03:25:54.951Z,699.76
2017-12-15T03:26:55.417Z,699.92
2017-12-15T03:27:55.886Z,699.90
2017-12-15T03:28:56.353Z,699.77
2017-12-15T03:29:56.822Z,699.82
2017-12-15T03:30:57.291Z,699.92
2017-12-15T03:31:57.759Z,699.92
2017-12-15T03:32:58.237Z,699.99
2017-12-15T03:33:58.694Z,699.87
2017-12-15T03:34:59.162Z,699.84
2017-12-15T03:35:59.629Z,699.80
2017-12-15T03:37:00.099Z,700.04
2017-12-15T03:38:00.565Z,700.00
2017-12-15T03:39:01.034Z,699.87
2017-12-15T03:40:01.502Z,699.98
2017-12-15T03:41:01.969Z,700.01
2017-12-15T03:42:02.437Z,699.96
2017-12-15T03:43:02.904Z,699.91
2017-12-15T03:44:03.371Z,699.89
2017-12-15T03:45:03.841Z,699.90
2017-12-15T03:46:04.309Z,699.91
2017-12-15T03:47:04.776Z,699.82
2017-12-15T03:48:05.245Z,699.92
2017-12-15T03:49:05.712Z,699.85
2017-12-15T03:50:06.181Z,699.67
2017-12-15T03:51:06.651Z,699.88
2017-12-15T03:52:07.116Z,699.76
2017-12-15T03:53:07.582Z,699.79
2017-12-15T03:54:08.050Z,699.86
2017-12-15T03:55:08.517Z,699.85
2017-12-15T03:56:08.985Z,699.65
2017-12-15T03:57:09.454Z,699.84
2017-12-15T03:58:09.925Z,699.76
2017-12-15T03:59:10.389Z,699.92
2017-12-15T04:00:10.857Z,700.00
2017-12-15T04:01:11.326Z,699.92
2017-12-15T04:02:11.794Z,699.94
2017-12-15T04:03:12.309Z,699.78
2017-12-15T04:04:12.728Z,699.99
2017-12-15T04:05:13.196Z,700.01
2017-12-15T04:06:13.664Z,699.93
2017-12-15T04:07:14.133Z,699.95
2017-12-15T04:08:14.599Z,699.80
2017-12-15T04:09:15.070Z,700.02
2017-12-15T04:10:15.535Z,700.02
2017-12-15T04:11:16.004Z,699.96
2017-12-15T04:12:16.469Z,699.82
2017-12-15T04:13:16.940Z,700.06
2017-12-15T04:14:17.405Z,700.09
2017-12-15T04:15:17.875Z,700.02
2017-12-15T04:16:18.341Z,699.96
2017-12-15T04:17:18.809Z,699.86
2017-12-15T04:18:19.277Z,699.81
2017-12-15T04:19:19.744Z,699.95
2017-12-15T04:20:20.213Z,699.69
2017-12-15T04:21:20.686Z,699.67
2017-12-15T04:22:21.152Z,699.76
2017-12-15T04:23:21.614Z,699.67
2017-12-15T04:24:22.083Z,699.65
2017-12-15T04:25:22.551Z,699.80
2017-12-15T04:26:23.019Z,699.86
2017-12-15T04:27:23.487Z,699.95
2017-12-15T04:28:23.954Z,699.94
2017-12-15T04:29:24.478Z,699.99
2017-12-15T04:30:24.889Z,699.80
2017-12-15T04:31:25.356Z,699.75
2017-12-15T04:32:25.824Z,699.84
2017-12-15T04:33:26.292Z,699.88
2017-12-15T04:34:26.761Z,699.83
2017-12-15T04:35:27.228Z,699.86
2017-12-15T04:36:27.695Z,699.83
2017-12-15T04:37:28.163Z,699.75
2017-12-15T04:38:28.633Z,699.87
2017-12-15T04:39:29.097Z,699.82
2017-12-15T04:40:29.566Z,699.83
2017-12-15T04:41:30.035Z,699.93
2017-12-15T04:42:30.504Z,699.92
2017-12-15T04:43:30.977Z,699.68
2017-12-15T04:44:31.437Z,699.84
2017-12-15T04:45:31.905Z,699.82
2017-12-15T04:46:32.373Z,699.64
2017-12-15T04:47:32.840Z,699.82
2017-12-15T04:48:33.307Z,699.75
2017-12-15T04:49:33.776Z,700.08
2017-12-15T04:50:34.247Z,699.98
2017-12-15T04:51:34.710Z,699.92
2017-12-15T04:52:35.180Z,700.00
2017-12-15T04:53:35.647Z,699.96
2017-12-15T04:54:36.114Z,699.93
2017-12-15T04:55:36.582Z,699.97
2017-12-15T04:56:37.050Z,700.03
2017-12-15T04:57:37.516Z,699.88
2017-12-15T04:58:37.986Z,699.72
2017-12-15T04:59:38.453Z,699.97
2017-12-15T05:00:38.921Z,699.93
2017-12-15T05:01:39.388Z,699.70
2017-12-15T05:02:39.857Z,699.48
2017-12-15T05:03:40.323Z,699.79
2017-12-15T05:04:40.793Z,700.15
2017-12-15T05:05:41.261Z,699.95
2017-12-15T05:06:41.727Z,699.78
2017-12-15T05:07:42.196Z,699.92
2017-12-15T05:08:42.662Z,700.14
2017-12-15T05:09:43.132Z,699.96
2017-12-15T05:10:43.599Z,700.04
2017-12-15T05:11:44.065Z,699.92
2017-12-15T05:12:44.533Z,700.10
2017-12-15T05:13:45.002Z,700.04
2017-12-15T05:14:45.469Z,699.69
2017-12-15T05:15:45.936Z,700.02
2017-12-15T05:16:46.403Z,699.95
2017-12-15T05:17:46.871Z,699.97
2017-12-15T05:18:47.339Z,699.84
2017-12-15T05:19:47.807Z,699.86
2017-12-15T05:20:48.278Z,699.79
2017-12-15T05:21:48.741Z,699.94
2017-12-15T05:22:49.210Z,699.90
2017-12-15T05:23:49.677Z,699.89
2017-12-15T05:24:50.146Z,699.94
2017-12-15T05:25:50.614Z,699.73
2017-12-15T05:26:51.081Z,699.89
2017-12-15T05:27:51.549Z,699.57
2017-12-15T05:28:52.017Z,699.97
2017-12-15T05:29:52.485Z,699.93
2017-12-15T05:30:52.954Z,699.98
2017-12-15T05:31:53.419Z,700.07
2017-12-15T05:32:53.888Z,699.95
2017-12-15T05:33:54.358Z,699.86
2017-12-15T05:34:54.822Z,699.62
2017-12-15T05:35:55.289Z,699.85
2017-12-15T05:36:55.757Z,699.95
2017-12-15T05:37:56.226Z,699.79
2017-12-15T05:38:56.693Z,700.17
2017-12-15T05:39:57.160Z,700.05
2017-12-15T05:40:57.628Z,700.03
2017-12-15T05:41:58.095Z,699.92
2017-12-15T05:42:58.564Z,699.62
2017-12-15T05:43:59.031Z,700.04
2017-12-15T05:44:59.498Z,700.04
2017-12-15T05:45:59.969Z,699.89
2017-12-15T05:47:00.435Z,699.95
2017-12-15T05:48:00.902Z,699.74
2017-12-15T05:49:01.370Z,699.99
2017-12-15T05:50:01.838Z,699.84
2017-12-15T05:51:02.311Z,699.93
2017-12-15T05:52:02.772Z,700.02
2017-12-15T05:53:03.240Z,700.03
2017-12-15T05:54:03.709Z,700.13
2017-12-15T05:55:04.176Z,699.93
2017-12-15T05:56:04.646Z,699.93
2017-12-15T05:57:05.112Z,699.94
2017-12-15T05:58:05.580Z,699.88
2017-12-15T05:59:06.048Z,699.87
2017-12-15T06:00:06.516Z,699.82
2017-12-15T06:01:06.982Z,699.93
2017-12-15T06:02:07.449Z,700.04
2017-12-15T06:03:07.917Z,700.02
2017-12-15T06:04:08.387Z,700.00
2017-12-15T06:05:08.850Z,699.99
2017-12-15T06:06:09.320Z,700.13
2017-12-15T06:07:09.788Z,700.07
2017-12-15T06:08:10.256Z,700.01
2017-12-15T06:09:10.725Z,700.05
2017-12-15T06:10:11.194Z,700.04
2017-12-15T06:11:11.660Z,700.03
2017-12-15T06:12:12.126Z,700.03
2017-12-15T06:13:12.601Z,700.07
2017-12-15T06:14:13.062Z,700.02
2017-12-15T06:15:13.532Z,699.78
2017-12-15T06:16:13.997Z,699.85
2017-12-15T06:17:14.465Z,699.99
2017-12-15T06:18:14.932Z,700.05
2017-12-15T06:19:15.402Z,700.03
2017-12-15T06:20:15.866Z,700.11
2017-12-15T06:21:16.336Z,700.10
2017-12-15T06:22:16.803Z,700.00
2017-12-15T06:23:17.274Z,700.08
2017-12-15T06:24:17.738Z,700.09
2017-12-15T06:25:18.207Z,700.07
2017-12-15T06:26:18.674Z,700.00
2017-12-15T06:27:19.142Z,699.92
2017-12-15T06:28:19.609Z,699.98
2017-12-15T06:29:20.079Z,700.14
2017-12-15T06:30:20.543Z,700.30
2017-12-15T06:31:21.012Z,700.25
2017-12-15T06:32:21.477Z,700.13
2017-12-15T06:33:21.945Z,699.99
2017-12-15T06:34:22.418Z,700.02
2017-12-15T06:35:22.880Z,700.01
2017-12-15T06:36:23.348Z,699.97
2017-12-15T06:37:23.815Z,699.98
2017-12-15T06:38:24.283Z,700.11
2017-12-15T06:39:24.751Z,700.09
2017-12-15T06:40:25.217Z,700.05
2017-12-15T06:41:25.685Z,700.10
2017-12-15T06:42:26.152Z,700.16
2017-12-15T06:43:26.620Z,700.27
2017-12-15T06:44:27.094Z,700.11
2017-12-15T06:45:27.557Z,700.12
2017-12-15T06:46:28.021Z,700.18
2017-12-15T06:47:28.490Z,700.20
2017-12-15T06:48:28.959Z,700.17
2017-12-15T06:49:29.425Z,700.27
2017-12-15T06:50:29.892Z,700.28
2017-12-15T06:51:30.359Z,700.29
2017-12-15T06:52:30.827Z,700.31
2017-12-15T06:53:31.295Z,700.40
2017-12-15T06:54:31.764Z,700.26
2017-12-15T06:55:32.231Z,700.32
2017-12-15T06:56:32.697Z,700.39
2017-12-15T06:57:33.165Z,700.15
2017-12-15T06:58:33.635Z,700.18
2017-12-15T06:59:34.100Z,700.18
2017-12-15T07:00:34.617Z,700.23
2017-12-15T07:01:35.035Z,700.05
2017-12-15T07:02:35.503Z,700.28
2017-12-15T07:03:35.970Z,700.35
2017-12-15T07:04:36.440Z,700.37
2017-12-15T07:05:36.904Z,700.27
2017-12-15T07:06:37.374Z,700.27
2017-12-15T07:07:37.839Z,700.28
2017-12-15T07:08:38.307Z,700.29
2017-12-15T07:09:38.774Z,700.29
2017-12-15T07:10:39.242Z,700.37
2017-12-15T07:11:39.711Z,700.29
2017-12-15T07:12:40.177Z,700.31
2017-12-15T07:13:40.643Z,700.40
2017-12-15T07:14:41.112Z,700.46
2017-12-15T07:15:41.580Z,700.42
2017-12-15T07:16:42.046Z,700.33
2017-12-15T07:17:42.513Z,700.38
2017-12-15T07:18:42.980Z,700.33
2017-12-15T07:19:43.448Z,700.38
2017-12-15T07:20:43.915Z,700.39
2017-12-15T07:21:44.382Z,700.41
2017-12-15T07:22:44.851Z,700.38
2017-12-15T07:23:45.318Z,700.39
2017-12-15T07:24:45.784Z,700.31
2017-12-15T07:25:46.253Z,700.37
2017-12-15T07:26:46.720Z,700.46
2017-12-15T07:27:47.191Z,700.42
2017-12-15T07:28:47.657Z,700.35
2017-12-15T07:29:48.121Z,700.48
2017-12-15T07:30:48.590Z,700.51
2017-12-15T07:31:49.058Z,700.40
2017-12-15T07:32:49.523Z,700.35
2017-12-15T07:33:49.994Z,700.32
2017-12-15T07:34:50.460Z,700.37
2017-12-15T07:35:50.928Z,700.43
2017-12-15T07:36:51.394Z,700.38
2017-12-15T07:37:51.864Z,700.42
2017-12-15T07:38:52.330Z,700.35
2017-12-15T07:39:52.798Z,700.37
2017-12-15T07:40:53.263Z,700.39
2017-12-15T07:41:53.731Z,700.42
2017-12-15T07:42:54.198Z,700.39
2017-12-15T07:43:54.668Z,700.36
2017-12-15T07:44:55.134Z,700.30
2017-12-15T07:45:55.602Z,700.28
2017-12-15T07:46:56.069Z,700.43
2017-12-15T07:47:56.536Z,700.39
2017-12-15T07:48:57.002Z,700.43
2017-12-15T07:49:57.470Z,700.42
2017-12-15T07:50:57.937Z,700.55
2017-12-15T07:51:58.406Z,700.53
2017-12-15T07:52:58.872Z,700.51
2017-12-15T07:53:59.340Z,700.63
2017-12-15T07:54:59.807Z,700.57
2017-12-15T07:56:00.275Z,700.53
2017-12-15T07:57:00.743Z,700.60
2017-12-15T07:58:01.210Z,700.58
2017-12-15T07:59:01.677Z,700.63
2017-12-15T08:00:02.145Z,700.60
2017-12-15T08:01:02.612Z,700.65
2017-12-15T08:02:03.078Z,700.64
2017-12-15T08:03:03.547Z,700.64
2017-12-15T08:04:04.018Z,700.62
2017-12-15T08:05:04.483Z,700.63
2017-12-15T08:06:04.949Z,700.76
2017-12-15T08:07:05.415Z,700.66
2017-12-15T08:08:05.885Z,700.64
2017-12-15T08:09:06.351Z,700.62
2017-12-15T08:10:06.819Z,700.67
2017-12-15T08:11:07.338Z,700.67
2017-12-15T08:12:07.755Z,700.68
2017-12-15T08:13:08.221Z,700.75
2017-12-15T08:14:08.696Z,700.68
2017-12-15T08:15:09.155Z,700.69
2017-12-15T08:16:09.624Z,700.71
2017-12-15T08:17:10.091Z,700.61
2017-12-15T08:18:10.559Z,700.58
2017-12-15T08:19:11.029Z,700.60
2017-12-15T08:20:11.494Z,700.62
2017-12-15T08:21:11.961Z,700.57
2017-12-15T08:22:12.429Z,700.50
2017-12-15T08:23:12.900Z,700.55
2017-12-15T08:24:13.364Z,700.51
2017-12-15T08:25:13.832Z,700.38
2017-12-15T08:26:14.299Z,700.48
2017-12-15T08:27:14.767Z,700.50
2017-12-15T08:28:15.235Z,700.44
2017-12-15T08:29:15.701Z,700.58
2017-12-15T08:30:16.169Z,700.46
2017-12-15T08:31:16.650Z,700.35
2017-12-15T08:32:17.103Z,700.35
2017-12-15T08:33:17.572Z,700.37
2017-12-15T08:34:18.038Z,700.37
2017-12-15T08:35:18.508Z,700.43
2017-12-15T08:36:18.973Z,700.34
2017-12-15T08:37:19.443Z,700.36
2017-12-15T08:38:19.909Z,700.26
2017-12-15T08:39:20.376Z,700.35
2017-12-15T08:40:20.843Z,700.31
2017-12-15T08:41:21.315Z,700.41
2017-12-15T08:42:21.779Z,700.42
2017-12-15T08:43:22.245Z,700.44
2017-12-15T08:44:22.727Z,700.40
2017-12-15T08:45:23.196Z,700.50
2017-12-15T08:46:23.660Z,700.47
2017-12-15T08:47:24.128Z,700.45
2017-12-15T08:48:24.597Z,700.43
2017-12-15T08:49:25.063Z,700.27
2017-12-15T08:50:25.519Z,700.38
2017-12-15T08:51:26.051Z,700.35
2017-12-15T08:52:26.465Z,700.31
2017-12-15T08:53:26.934Z,700.38
2017-12-15T08:54:27.393Z,700.48
2017-12-15T08:56:28.345Z,700.55
2017-12-15T08:58:29.272Z,700.60
2017-12-15T08:59:29.743Z,700.52
2017-12-15T09:00:30.207Z,700.50
2017-12-15T09:01:30.660Z,700.59
2017-12-15T09:02:31.141Z,700.61
2017-12-15T09:03:31.610Z,700.67
2017-12-15T09:04:32.079Z,700.57
2017-12-15T09:05:32.542Z,700.52
2017-12-15T09:06:33.062Z,700.61
2017-12-15T09:07:33.480Z,700.52
2017-12-15T09:08:33.946Z,700.62
2017-12-15T09:09:34.417Z,700.71
2017-12-15T09:10:34.884Z,700.64
2017-12-15T09:11:35.348Z,700.81
2017-12-15T09:12:35.807Z,700.63
2017-12-15T09:13:36.284Z,700.65
2017-12-15T09:14:36.754Z,700.51
2017-12-15T09:15:37.222Z,700.64
2017-12-15T09:16:37.738Z,700.75
2017-12-15T09:17:38.157Z,700.72
2017-12-15T09:18:38.625Z,700.83
2017-12-15T09:19:39.080Z,700.87
2017-12-15T09:20:39.566Z,700.89
2017-12-15T09:21:40.030Z,700.88
2017-12-15T09:22:40.495Z,700.87
2017-12-15T09:23:40.951Z,700.84
2017-12-15T09:24:41.428Z,700.93
2017-12-15T09:25:41.903Z,700.89
2017-12-15T09:26:42.365Z,701.03
2017-12-15T09:27:42.834Z,700.95
2017-12-15T09:28:43.305Z,700.88
2017-12-15T09:29:43.769Z,700.95
2017-12-15T09:30:44.222Z,700.91
2017-12-15T09:31:44.756Z,700.87
2017-12-15T09:33:45.639Z,700.90
2017-12-15T09:34:46.094Z,700.84
2017-12-15T09:35:46.573Z,700.85
2017-12-15T09:36:58.880Z,700.90
2017-12-15T09:37:47.509Z,700.87
2017-12-15T09:38:47.979Z,700.91
2017-12-15T09:39:48.445Z,700.82
2017-12-15T09:40:48.920Z,700.85
2017-12-15T09:41:49.368Z,700.78
2017-12-15T09:42:49.849Z,700.91
2017-12-15T09:43:50.366Z,700.95
2017-12-15T09:44:50.790Z,700.93
2017-12-15T09:45:51.254Z,700.93
2017-12-15T09:46:51.721Z,700.92
2017-12-15T09:48:52.652Z,701.05
2017-12-15T09:49:53.128Z,701.13
2017-12-15T09:50:53.596Z,701.09
2017-12-15T09:51:54.063Z,701.11
2017-12-15T09:52:54.520Z,701.05
2017-12-15T09:53:54.999Z,701.10
2017-12-15T09:55:55.937Z,701.02
2017-12-15T09:56:56.455Z,701.08
2017-12-15T09:57:56.874Z,701.08
2017-12-15T09:58:57.341Z,701.09
2017-12-15T09:59:57.797Z,701.18
2017-12-15T10:00:58.280Z,701.20
2017-12-15T10:02:59.202Z,701.11
2017-12-15T10:06:00.623Z,701.07
2017-12-15T10:07:01.077Z,701.12
2017-12-15T10:08:01.557Z,701.14
2017-12-15T10:10:02.495Z,701.12
2017-12-15T10:11:02.966Z,701.10
2017-12-15T10:12:03.486Z,701.13
2017-12-15T10:14:04.357Z,701.12
2017-12-15T10:15:04.838Z,701.15
2017-12-15T10:16:05.307Z,701.15
2017-12-15T10:18:06.246Z,701.09
2017-12-15T10:19:06.752Z,700.97
2017-12-15T10:20:07.183Z,701.07
2017-12-15T10:21:07.639Z,700.98
2017-12-15T10:22:08.120Z,700.95
2017-12-15T10:23:08.588Z,700.96
2017-12-15T10:24:09.058Z,700.94
2017-12-15T10:25:09.514Z,700.97
2017-12-15T10:27:10.464Z,700.86
2017-12-15T10:28:10.934Z,700.86
2017-12-15T10:29:11.403Z,700.82
2017-12-15T10:30:11.871Z,700.74
2017-12-15T10:31:12.339Z,700.65
2017-12-15T10:32:12.795Z,700.78
2017-12-15T10:33:13.279Z,700.84
2017-12-15T10:34:13.747Z,700.83
2017-12-15T10:36:14.671Z,700.85
2017-12-15T10:37:26.877Z,700.87
2017-12-15T10:38:15.622Z,700.83
2017-12-15T10:39:16.093Z,700.82
2017-12-15T10:40:16.562Z,700.88
2017-12-15T10:41:17.033Z,700.87
2017-12-15T10:42:17.520Z,700.95
2017-12-15T10:43:17.956Z,700.78
2017-12-15T10:44:18.438Z,700.76
2017-12-15T10:45:18.905Z,700.85
2017-12-15T10:46:19.373Z,700.88
2017-12-15T10:47:19.895Z,700.86
2017-12-15T10:48:20.314Z,700.84
2017-12-15T10:49:20.783Z,700.75
2017-12-15T10:50:21.236Z,700.76
2017-12-15T10:51:21.721Z,700.84
2017-12-15T10:53:22.660Z,700.83
2017-12-15T10:54:23.115Z,700.88
2017-12-15T10:55:23.597Z,700.85
2017-12-15T10:56:24.067Z,700.87
2017-12-15T11:00:25.945Z,700.96
2017-12-15T11:01:26.399Z,700.86
2017-12-15T11:02:26.884Z,700.84
2017-12-15T11:03:27.353Z,700.81
2017-12-15T11:04:27.825Z,700.82
2017-12-15T11:05:28.278Z,700.88
2017-12-15T11:06:28.758Z,700.90
2017-12-15T11:07:29.231Z,700.93
2017-12-15T11:08:29.699Z,700.88
2017-12-15T11:09:30.168Z,700.83
2017-12-15T11:10:30.638Z,700.97
2017-12-15T11:12:31.563Z,700.94
2017-12-15T11:13:32.046Z,700.96
2017-12-15T11:14:32.575Z,700.82
2017-12-15T11:15:32.986Z,700.93
2017-12-15T11:16:33.441Z,700.91
2017-12-15T11:18:34.394Z,700.88
2017-12-15T11:20:35.385Z,700.89
2017-12-15T11:21:35.804Z,700.84
2017-12-15T11:22:36.274Z,700.70
2017-12-15T11:23:36.728Z,700.74
2017-12-15T11:24:37.213Z,700.78
2017-12-15T11:25:37.733Z,700.58
2017-12-15T11:26:38.150Z,700.69
2017-12-15T11:27:38.628Z,700.54
2017-12-15T11:28:39.090Z,700.57
2017-12-15T11:29:39.561Z,700.38
2017-12-15T11:30:40.017Z,700.49
2017-12-15T11:31:40.502Z,700.35
2017-12-15T11:33:41.445Z,700.41
2017-12-15T11:34:41.897Z,700.24
2017-12-15T11:35:42.431Z,700.19
2017-12-15T11:36:42.852Z,700.34
2017-12-15T11:37:43.322Z,700.52
2017-12-15T11:38:43.790Z,700.74
2017-12-15T11:39:44.264Z,700.68
2017-12-15T11:40:44.732Z,700.36
2017-12-15T11:41:45.188Z,700.44
2017-12-15T11:42:45.673Z,700.45
2017-12-15T11:43:46.140Z,700.37
2017-12-15T11:44:46.611Z,700.40
2017-12-15T11:45:47.067Z,700.54
2017-12-15T11:46:47.550Z,700.54
2017-12-15T11:47:48.025Z,700.66
2017-12-15T11:48:48.492Z,700.67
2017-12-15T11:49:48.961Z,700.64
2017-12-15T11:50:49.434Z,700.57
2017-12-15T11:51:49.902Z,700.59
2017-12-15T11:52:50.361Z,700.44
2017-12-15T11:54:51.314Z,700.58
2017-12-15T11:55:51.786Z,700.62
2017-12-15T11:56:52.255Z,700.47
2017-12-15T11:57:52.725Z,700.56
2017-12-15T11:59:53.666Z,700.38
2017-12-15T12:00:54.136Z,700.54
2017-12-15T12:01:54.609Z,700.55
2017-12-15T12:02:55.076Z,700.31
2017-12-15T12:03:55.534Z,700.31
2017-12-15T12:04:56.017Z,700.35
2017-12-15T12:06:56.958Z,700.22
2017-12-15T12:07:57.428Z,700.36
2017-12-15T12:08:57.901Z,700.33
2017-12-15T12:09:58.369Z,700.11
2017-12-15T12:10:58.829Z,700.26
2017-12-15T12:11:59.313Z,700.41
2017-12-15T12:12:59.784Z,700.48
2017-12-15T12:14:00.253Z,700.35
2017-12-15T12:15:00.709Z,700.14
2017-12-15T12:16:12.969Z,700.25
2017-12-15T12:19:02.605Z,700.19
2017-12-15T12:20:03.077Z,700.18
2017-12-15T12:22:04.006Z,700.13
2017-12-15T12:23:04.488Z,700.38
2017-12-15T12:24:04.961Z,700.03
2017-12-15T12:25:05.430Z,700.46
2017-12-15T12:26:05.887Z,700.52
2017-12-15T12:27:06.372Z,700.39
2017-12-15T12:28:06.841Z,700.45
2017-12-15T12:29:07.313Z,700.32
2017-12-15T12:30:07.785Z,700.38
2017-12-15T12:31:08.252Z,700.35
2017-12-15T12:32:08.724Z,700.34
2017-12-15T12:33:09.182Z,700.44
2017-12-15T12:34:09.666Z,700.35
2017-12-15T12:35:10.135Z,700.51
2017-12-15T12:36:22.040Z,700.57
2017-12-15T12:37:11.064Z,700.61
2017-12-15T12:38:11.548Z,700.54
2017-12-15T12:39:12.018Z,700.65
2017-12-15T12:40:12.493Z,700.68
2017-12-15T12:41:12.958Z,700.55
2017-12-15T12:44:14.356Z,700.54
2017-12-15T12:45:14.841Z,700.58
2017-12-15T12:46:15.312Z,700.59
2017-12-15T12:47:15.782Z,700.57
2017-12-15T12:48:16.253Z,700.49
2017-12-15T12:49:16.724Z,700.57
2017-12-15T12:50:17.193Z,700.33
2017-12-15T12:51:17.663Z,700.52
2017-12-15T12:52:18.134Z,700.63
2017-12-15T12:53:18.606Z,700.56
2017-12-15T12:54:19.091Z,700.61
2017-12-15T12:55:19.533Z,700.65
2017-12-15T12:56:20.002Z,700.60
2017-12-15T12:57:20.489Z,700.71
2017-12-15T12:58:20.958Z,700.69
2017-12-15T12:59:21.427Z,700.70
2017-12-15T13:00:21.900Z,700.66
2017-12-15T13:01:22.367Z,700.56
2017-12-15T13:03:23.309Z,700.56
2017-12-15T13:04:23.780Z,700.42